createdAt,value
2022-08-20T00:01:55.491Z,100.00
2022-08-20T00:04:22.670Z,100.00
2022-08-20T00:06:49.908Z,100.00
2022-08-20T00:09:17.063Z,100.00
2022-08-20T00:11:44.105Z,100.00
2022-08-20T00:14:11.295Z,100.00
2022-08-20T00:16:39.534Z,100.00
2022-08-20T00:19:09.644Z,100.00
2022-08-20T00:21:37.845Z,100.00
2022-08-20T00:24:06.332Z,100.00
2022-08-20T00:26:34.458Z,100.00
2022-08-20T00:29:05.045Z,100.00
2022-08-20T00:31:32.779Z,100.00
2022-08-20T00:33:59.920Z,100.00
2022-08-20T00:36:32.516Z,100.00
2022-08-20T00:39:00.749Z,100.00
2022-08-20T00:41:29.651Z,100.00
2022-08-20T00:44:15.856Z,100.00
2022-08-20T00:46:45.889Z,100.00
2022-08-20T00:49:24.814Z,100.00
2022-08-20T00:52:18.888Z,100.00
2022-08-20T00:55:00.564Z,100.00
2022-08-20T00:57:43.526Z,100.00
2022-08-20T01:00:43.004Z,100.00
2022-08-20T01:03:16.602Z,100.00
2022-08-20T01:05:49.825Z,100.00
2022-08-20T01:08:22.581Z,100.00
2022-08-20T01:10:53.934Z,100.00
2022-08-20T01:13:25.853Z,100.00
2022-08-20T01:15:59.526Z,100.00
2022-08-20T01:18:28.921Z,100.00
2022-08-20T01:21:04.243Z,100.00
2022-08-20T01:24:17.269Z,100.00
2022-08-20T01:26:49.302Z,100.00
2022-08-20T01:29:25.663Z,100.00
2022-08-20T01:31:52.916Z,100.00
2022-08-20T01:34:21.104Z,100.00
2022-08-20T01:36:55.102Z,100.00
2022-08-20T01:39:33.279Z,100.00
2022-08-20T01:42:51.134Z,100.00
2022-08-20T01:45:30.264Z,100.00
2022-08-20T01:47:59.351Z,100.00
2022-08-20T01:50:32.604Z,100.00
2022-08-20T01:53:21.437Z,100.00
2022-08-20T01:55:48.519Z,100.00
2022-08-20T01:58:16.152Z,100.00
2022-08-20T02:00:44.079Z,100.00
2022-08-20T02:03:11.179Z,100.00
2022-08-20T02:05:38.499Z,100.00
2022-08-20T02:08:06.094Z,100.00
2022-08-20T02:10:34.498Z,100.00
2022-08-20T02:13:02.633Z,100.00
2022-08-20T02:15:35.004Z,100.00
2022-08-20T02:18:16.984Z,100.00
2022-08-20T02:20:46.052Z,100.00
2022-08-20T02:23:15.704Z,100.00
2022-08-20T02:25:48.276Z,100.00
2022-08-20T02:28:20.669Z,100.00
2022-08-20T02:30:53.800Z,100.00
2022-08-20T02:33:24.567Z,100.00
2022-08-20T02:35:56.527Z,100.00
2022-08-20T02:38:25.034Z,100.00
2022-08-20T02:40:52.468Z,100.00
2022-08-20T02:43:20.446Z,100.00
2022-08-20T02:45:48.103Z,100.00
2022-08-20T02:48:21.537Z,100.00
2022-08-20T02:51:07.085Z,100.00
2022-08-20T02:53:42.021Z,100.00
2022-08-20T02:56:12.565Z,100.00
2022-08-20T02:58:41.378Z,100.00
2022-08-20T03:01:14.666Z,100.00
2022-08-20T03:03:43.875Z,100.00
2022-08-20T03:06:13.715Z,100.00
2022-08-20T03:08:41.188Z,100.00
2022-08-20T03:11:08.600Z,100.00
2022-08-20T03:13:36.306Z,100.00
2022-08-20T03:16:05.727Z,100.00
2022-08-20T03:18:44.050Z,100.00
2022-08-20T03:21:14.852Z,100.00
2022-08-20T03:23:42.714Z,100.00
2022-08-20T03:26:13.700Z,100.00
2022-08-20T03:28:42.478Z,100.00
2022-08-20T03:31:10.859Z,100.00
2022-08-20T03:33:48.929Z,100.00
2022-08-20T03:36:28.857Z,100.00
2022-08-20T03:39:06.875Z,100.00
2022-08-20T03:41:33.970Z,100.00
2022-08-20T03:44:01.052Z,100.00
2022-08-20T03:46:28.206Z,100.00
2022-08-20T03:48:59.567Z,100.00
2022-08-20T03:51:57.305Z,100.00
2022-08-20T03:54:20.392Z,100.00
2022-08-20T03:56:47.877Z,100.00
2022-08-20T03:59:14.936Z,100.00
2022-08-20T04:01:46.136Z,100.00
2022-08-20T04:04:15.438Z,100.00
2022-08-20T04:06:44.385Z,100.00
2022-08-20T04:09:12.523Z,100.00
2022-08-20T04:11:42.461Z,100.00
2022-08-20T04:14:11.986Z,100.00
2022-08-20T04:16:46.414Z,100.00
2022-08-20T04:19:16.561Z,100.00
2022-08-20T04:21:43.681Z,100.00
2022-08-20T04:24:30.149Z,100.00
2022-08-20T04:26:58.900Z,100.00
2022-08-20T04:29:32.512Z,100.00
2022-08-20T04:32:03.402Z,100.00
2022-08-20T04:34:33.642Z,100.00
2022-08-20T04:37:00.707Z,100.00
2022-08-20T04:39:27.813Z,100.00
2022-08-20T04:41:54.889Z,100.00
2022-08-20T04:44:22.809Z,100.00
2022-08-20T04:46:51.247Z,100.00
2022-08-20T04:49:26.543Z,100.00
2022-08-20T04:51:55.231Z,100.00
2022-08-20T04:54:22.338Z,100.00
2022-08-20T04:56:49.505Z,100.00
2022-08-20T04:59:16.579Z,100.00
2022-08-20T05:01:43.620Z,100.00
2022-08-20T05:04:10.636Z,100.00
2022-08-20T05:06:38.702Z,100.00
2022-08-20T05:09:05.867Z,100.00
2022-08-20T05:11:36.759Z,100.00
2022-08-20T05:14:09.560Z,100.00
2022-08-20T05:16:40.678Z,100.00
2022-08-20T05:19:13.849Z,100.00
2022-08-20T05:21:41.737Z,100.00
2022-08-20T05:24:10.308Z,100.00
2022-08-20T05:26:37.440Z,100.00
2022-08-20T05:29:06.377Z,100.00
2022-08-20T05:31:35.678Z,100.00
2022-08-20T05:34:11.722Z,100.00
2022-08-20T05:36:51.391Z,100.00
2022-08-20T05:39:22.844Z,100.00
2022-08-20T05:41:50.972Z,100.00
2022-08-20T05:44:20.040Z,100.00
2022-08-20T05:46:48.967Z,100.00
2022-08-20T05:49:21.653Z,100.00
2022-08-20T05:51:51.524Z,100.00
2022-08-20T05:54:18.907Z,100.00
2022-08-20T05:56:45.941Z,100.00
2022-08-20T05:59:14.179Z,100.00
2022-08-20T06:01:43.039Z,100.00
2022-08-20T06:04:28.699Z,100.00
2022-08-20T06:07:08.520Z,100.00
2022-08-20T06:09:36.548Z,100.00
2022-08-20T06:12:11.833Z,100.00
2022-08-20T06:14:39.314Z,100.00
2022-08-20T06:17:17.467Z,100.00
2022-08-20T06:19:47.558Z,100.00
2022-08-20T06:22:19.210Z,100.00
2022-08-20T06:24:53.938Z,100.00
2022-08-20T06:27:22.932Z,100.00
2022-08-20T06:29:52.193Z,100.00
2022-08-20T06:32:32.044Z,100.00
2022-08-20T06:35:02.406Z,100.00
2022-08-20T06:37:32.997Z,100.00
2022-08-20T06:40:18.950Z,100.00
2022-08-20T06:42:48.832Z,100.00
2022-08-20T06:45:26.989Z,100.00
2022-08-20T06:48:00.066Z,100.00
2022-08-20T06:50:43.162Z,100.00
2022-08-20T06:53:20.857Z,100.00
2022-08-20T06:55:55.071Z,100.00
2022-08-20T06:58:35.621Z,100.00
2022-08-20T07:01:11.413Z,100.00
2022-08-20T07:03:54.882Z,100.00
2022-08-20T07:06:25.982Z,100.00
2022-08-20T07:08:56.628Z,100.00
2022-08-20T07:11:28.035Z,100.00
2022-08-20T07:13:58.837Z,100.00
2022-08-20T07:16:27.387Z,100.00
2022-08-20T07:18:54.846Z,100.00
2022-08-20T07:21:21.968Z,100.00
2022-08-20T07:23:49.639Z,100.00
2022-08-20T07:26:18.387Z,100.00
2022-08-20T07:28:47.274Z,100.00
2022-08-20T07:31:35.038Z,100.00
2022-08-20T07:34:03.719Z,100.00
2022-08-20T07:36:31.316Z,100.00
2022-08-20T07:38:58.893Z,100.00
2022-08-20T07:41:25.993Z,100.00
2022-08-20T07:43:53.456Z,100.00
2022-08-20T07:46:21.846Z,100.00
2022-08-20T07:48:51.634Z,100.00
2022-08-20T07:51:22.485Z,100.00
2022-08-20T07:53:51.978Z,100.00
2022-08-20T07:56:24.764Z,100.00
2022-08-20T07:58:56.719Z,100.00
2022-08-20T08:01:31.278Z,100.00
2022-08-20T08:04:00.810Z,100.00
2022-08-20T08:06:31.577Z,100.00
2022-08-20T08:09:07.748Z,100.00
2022-08-20T08:11:47.248Z,100.00
2022-08-20T08:14:23.750Z,100.00
2022-08-20T08:16:57.401Z,100.00
2022-08-20T08:19:38.360Z,100.00
2022-08-20T08:22:14.419Z,100.00
2022-08-20T08:24:57.042Z,100.00
2022-08-20T08:27:25.477Z,100.00
2022-08-20T08:29:52.621Z,100.00
2022-08-20T08:32:19.781Z,100.00
2022-08-20T08:34:48.288Z,100.00
2022-08-20T08:37:15.461Z,100.00
2022-08-20T08:39:42.710Z,100.00
2022-08-20T08:42:52.450Z,100.00
2022-08-20T08:45:21.195Z,100.00
2022-08-20T08:47:48.922Z,100.00
2022-08-20T08:50:54.693Z,100.00
2022-08-20T08:53:37.630Z,100.00
2022-08-20T08:56:07.581Z,100.00
2022-08-20T08:58:35.457Z,100.00
2022-08-20T09:01:53.212Z,100.00
2022-08-20T09:04:06.097Z,100.00
2022-08-20T09:06:33.406Z,100.00
2022-08-20T09:09:06.945Z,100.00
2022-08-20T09:11:53.304Z,100.00
2022-08-20T09:14:25.039Z,100.00
2022-08-20T09:16:53.572Z,100.00
2022-08-20T09:19:21.871Z,100.00
2022-08-20T09:21:49.697Z,100.00
2022-08-20T09:24:17.021Z,100.00
2022-08-20T09:26:44.671Z,100.00
2022-08-20T09:29:11.893Z,100.00
2022-08-20T09:31:39.876Z,100.00
2022-08-20T09:34:07.580Z,100.00
2022-08-20T09:36:35.420Z,100.00
2022-08-20T09:39:03.386Z,100.00
2022-08-20T09:41:33.558Z,100.00
2022-08-20T09:44:02.513Z,100.00
2022-08-20T09:46:29.773Z,100.00
2022-08-20T09:48:56.858Z,100.00
2022-08-20T09:51:24.158Z,100.00
2022-08-20T09:53:51.688Z,100.00
2022-08-20T09:56:19.017Z,100.00
2022-08-20T09:58:58.908Z,100.00
2022-08-20T10:01:28.100Z,100.00
2022-08-20T10:03:55.173Z,100.00
2022-08-20T10:06:22.261Z,100.00
2022-08-20T10:08:50.511Z,100.00
2022-08-20T10:11:18.817Z,100.00
2022-08-20T10:13:46.304Z,100.00
2022-08-20T10:16:13.703Z,100.00
2022-08-20T10:18:41.309Z,100.00
2022-08-20T10:21:12.418Z,100.00
2022-08-20T10:23:39.957Z,100.00
2022-08-20T10:26:13.585Z,100.00
2022-08-20T10:28:40.970Z,100.00
2022-08-20T10:31:13.305Z,100.00
2022-08-20T10:33:42.891Z,100.00
2022-08-20T10:36:16.550Z,100.00
2022-08-20T10:38:45.933Z,100.00
2022-08-20T10:41:13.132Z,100.00
2022-08-20T10:43:40.216Z,100.00
2022-08-20T10:46:07.372Z,100.00
2022-08-20T10:48:34.706Z,100.00
2022-08-20T10:51:01.855Z,100.00
2022-08-20T10:53:28.998Z,100.00
2022-08-20T10:55:58.042Z,100.00
2022-08-20T10:58:37.464Z,100.00
2022-08-20T11:01:06.997Z,100.00
2022-08-20T11:03:34.903Z,99.58
2022-08-20T11:06:03.717Z,99.97
2022-08-20T11:08:34.261Z,100.00
2022-08-20T11:11:05.601Z,96.07
2022-08-20T11:13:35.405Z,99.64
2022-08-20T11:16:04.368Z,97.27
2022-08-20T11:18:31.865Z,95.62
2022-08-20T11:20:59.207Z,94.59
2022-08-20T11:23:26.474Z,95.62
2022-08-20T11:25:54.752Z,98.24
2022-08-20T11:28:31.892Z,98.93
2022-08-20T11:31:01.683Z,99.23
2022-08-20T11:33:29.268Z,100.00
2022-08-20T11:35:56.960Z,100.00
2022-08-20T11:38:24.022Z,98.92
2022-08-20T11:40:51.193Z,98.88
2022-08-20T11:43:18.524Z,97.31
2022-08-20T11:45:54.556Z,98.49
2022-08-20T11:48:22.436Z,99.18
2022-08-20T11:50:51.321Z,100.00
2022-08-20T11:53:18.624Z,98.98
2022-08-20T11:55:48.039Z,100.00
2022-08-20T11:58:15.141Z,100.00
2022-08-20T12:00:42.264Z,100.00
2022-08-20T12:03:11.690Z,100.00
2022-08-20T12:05:45.003Z,100.00
2022-08-20T12:08:27.216Z,100.00
2022-08-20T12:10:59.881Z,100.00
2022-08-20T12:13:48.824Z,100.00
2022-08-20T12:16:20.717Z,100.00
2022-08-20T12:18:49.018Z,100.00
2022-08-20T12:21:16.777Z,99.73
2022-08-20T12:23:43.818Z,99.82
2022-08-20T12:26:11.086Z,100.00
2022-08-20T12:28:38.267Z,100.00
2022-08-20T12:31:05.717Z,99.85
2022-08-20T12:33:32.786Z,99.91
2022-08-20T12:35:59.900Z,100.00
2022-08-20T12:38:27.284Z,98.34
2022-08-20T12:40:54.290Z,99.62
2022-08-20T12:43:24.811Z,99.78
2022-08-20T12:45:52.564Z,100.00
2022-08-20T12:48:21.112Z,100.00
2022-08-20T12:50:50.323Z,100.00
2022-08-20T12:53:18.007Z,100.00
2022-08-20T12:55:46.640Z,100.00
2022-08-20T12:58:13.742Z,100.00
2022-08-20T13:00:47.486Z,100.00
2022-08-20T13:03:18.735Z,100.00
2022-08-20T13:05:45.787Z,100.00
2022-08-20T13:08:13.718Z,100.00
2022-08-20T13:10:45.883Z,100.00
2022-08-20T13:13:20.230Z,99.65
2022-08-20T13:15:51.013Z,100.00
2022-08-20T13:18:20.206Z,100.00
2022-08-20T13:20:47.744Z,100.00
2022-08-20T13:23:15.393Z,100.00
2022-08-20T13:25:42.406Z,100.00
2022-08-20T13:28:09.607Z,100.00
2022-08-20T13:30:41.048Z,100.00
2022-08-20T13:33:08.172Z,100.00
2022-08-20T13:35:35.250Z,100.00
2022-08-20T13:38:02.321Z,100.00
2022-08-20T13:40:29.588Z,100.00
2022-08-20T13:42:57.430Z,100.00
2022-08-20T13:45:24.591Z,100.00
2022-08-20T13:47:55.800Z,100.00
2022-08-20T13:50:26.071Z,100.00
2022-08-20T13:52:53.768Z,100.00
2022-08-20T13:55:24.242Z,100.00
2022-08-20T13:57:54.705Z,100.00
2022-08-20T14:00:36.062Z,100.00
2022-08-20T14:03:06.810Z,100.00
2022-08-20T14:05:35.302Z,100.00
2022-08-20T14:08:18.821Z,100.00
2022-08-20T14:10:51.548Z,100.00
2022-08-20T14:13:24.845Z,100.00
2022-08-20T14:15:52.867Z,100.00
2022-08-20T14:18:20.439Z,100.00
2022-08-20T14:20:47.639Z,100.00
2022-08-20T14:23:15.929Z,100.00
2022-08-20T14:25:49.496Z,100.00
2022-08-20T14:28:24.949Z,100.00
2022-08-20T14:30:52.640Z,100.00
2022-08-20T14:33:21.422Z,100.00
2022-08-20T14:35:48.430Z,100.00
2022-08-20T14:38:15.533Z,100.00
2022-08-20T14:40:42.611Z,100.00
2022-08-20T14:43:09.628Z,100.00
2022-08-20T14:45:37.468Z,100.00
2022-08-20T14:48:08.775Z,100.00
2022-08-20T14:50:37.598Z,100.00
2022-08-20T14:53:05.810Z,100.00
2022-08-20T14:55:37.694Z,100.00
2022-08-20T14:58:15.191Z,100.00
2022-08-20T15:00:44.294Z,100.00
2022-08-20T15:03:13.404Z,100.00
2022-08-20T15:05:40.857Z,100.00
2022-08-20T15:08:10.502Z,100.00
2022-08-20T15:10:39.172Z,100.00
2022-08-20T15:13:06.593Z,100.00
2022-08-20T15:15:35.087Z,100.00
2022-08-20T15:18:02.126Z,100.00
2022-08-20T15:20:33.584Z,100.00
2022-08-20T15:23:02.400Z,100.00
2022-08-20T15:25:36.691Z,100.00
2022-08-20T15:28:10.118Z,100.00
2022-08-20T15:30:41.742Z,100.00
2022-08-20T15:33:11.298Z,100.00
2022-08-20T15:35:38.943Z,100.00
2022-08-20T15:38:06.071Z,100.00
2022-08-20T15:40:34.373Z,100.00
2022-08-20T15:43:05.187Z,100.00
2022-08-20T15:45:35.191Z,100.00
2022-08-20T15:48:19.049Z,100.00
2022-08-20T15:51:16.932Z,100.00
2022-08-20T15:54:26.426Z,100.00
2022-08-20T15:57:39.325Z,100.00
2022-08-20T16:00:44.755Z,100.00
2022-08-20T16:03:51.324Z,100.00
2022-08-20T16:06:30.495Z,100.00
2022-08-20T16:09:38.264Z,100.00
2022-08-20T16:12:34.813Z,100.00
2022-08-20T16:15:19.809Z,100.00
2022-08-20T16:18:14.608Z,100.00
2022-08-20T16:20:53.685Z,100.00
2022-08-20T16:23:39.408Z,100.00
2022-08-20T16:26:40.361Z,100.00
2022-08-20T16:29:33.684Z,100.00
2022-08-20T16:32:18.731Z,100.00
2022-08-20T16:35:10.388Z,100.00
2022-08-20T16:37:58.890Z,100.00
2022-08-20T16:40:53.388Z,100.00
2022-08-20T16:43:39.634Z,100.00
2022-08-20T16:46:20.966Z,100.00
2022-08-20T16:49:13.758Z,100.00
2022-08-20T16:51:52.282Z,100.00
2022-08-20T16:54:28.268Z,100.00
2022-08-20T16:57:06.439Z,100.00
2022-08-20T16:59:34.191Z,100.00
2022-08-20T17:02:11.493Z,100.00
2022-08-20T17:04:58.843Z,100.00
2022-08-20T17:07:46.143Z,100.00
2022-08-20T17:10:52.321Z,100.00
2022-08-20T17:13:37.123Z,100.00
2022-08-20T17:16:19.655Z,100.00
2022-08-20T17:18:52.781Z,100.00
2022-08-20T17:21:43.408Z,100.00
2022-08-20T17:24:32.058Z,100.00
2022-08-20T17:27:30.961Z,100.00
2022-08-20T17:30:38.604Z,100.00
2022-08-20T17:33:38.815Z,100.00
2022-08-20T17:36:20.377Z,100.00
2022-08-20T17:39:18.633Z,100.00
2022-08-20T17:42:08.831Z,100.00
2022-08-20T17:44:50.008Z,100.00
2022-08-20T17:47:28.060Z,100.00
2022-08-20T17:50:15.252Z,100.00
2022-08-20T17:52:55.205Z,100.00
2022-08-20T17:55:23.863Z,100.00
2022-08-20T17:58:04.429Z,100.00
2022-08-20T18:00:32.505Z,100.00
2022-08-20T18:03:23.832Z,100.00
2022-08-20T18:06:33.215Z,100.00
2022-08-20T18:09:58.632Z,100.00
2022-08-20T18:12:42.104Z,100.00
2022-08-20T18:15:29.515Z,100.00
2022-08-20T18:19:12.657Z,100.00
2022-08-20T18:22:34.571Z,100.00
2022-08-20T18:25:18.213Z,100.00
2022-08-20T18:27:56.963Z,100.00
2022-08-20T18:30:26.983Z,100.00
2022-08-20T18:33:09.469Z,100.00
2022-08-20T18:35:45.939Z,100.00
2022-08-20T18:38:22.236Z,100.00
2022-08-20T18:40:54.927Z,100.00
2022-08-20T18:43:31.474Z,100.00
2022-08-20T18:46:23.573Z,100.00
2022-08-20T18:49:06.929Z,100.00
2022-08-20T18:51:51.024Z,100.00
2022-08-20T18:54:33.286Z,100.00
2022-08-20T18:57:24.122Z,100.00
2022-08-20T19:00:16.094Z,100.00
2022-08-20T19:03:43.757Z,100.00
2022-08-20T19:06:47.761Z,100.00
2022-08-20T19:09:55.957Z,100.00
2022-08-20T19:13:03.283Z,100.00
2022-08-20T19:15:47.467Z,100.00
2022-08-20T19:18:41.206Z,100.00
2022-08-20T19:21:15.668Z,100.00
2022-08-20T19:23:55.468Z,100.00
2022-08-20T19:26:30.125Z,100.00
2022-08-20T19:29:13.458Z,100.00
2022-08-20T19:31:42.140Z,100.00
2022-08-20T19:34:19.725Z,100.00
2022-08-20T19:37:35.537Z,100.00
2022-08-20T19:39:58.549Z,100.00
2022-08-20T19:42:40.516Z,100.00
2022-08-20T19:45:47.958Z,100.00
2022-08-20T19:48:42.778Z,100.00
2022-08-20T19:52:00.827Z,100.00
2022-08-20T19:54:30.392Z,100.00
2022-08-20T19:57:07.761Z,100.00
2022-08-20T19:59:35.798Z,100.00
2022-08-20T20:02:21.114Z,100.00
2022-08-20T20:04:54.915Z,100.00
2022-08-20T20:07:46.230Z,100.00
2022-08-20T20:10:37.066Z,100.00
2022-08-20T20:13:18.048Z,100.00
2022-08-20T20:15:46.377Z,100.00
2022-08-20T20:18:14.266Z,100.00
2022-08-20T20:21:07.622Z,100.00
2022-08-20T20:23:38.744Z,100.00
2022-08-20T20:26:22.633Z,100.00
2022-08-20T20:29:01.191Z,100.00
2022-08-20T20:31:33.056Z,100.00
2022-08-20T20:34:15.001Z,100.00
2022-08-20T20:36:47.734Z,100.00
2022-08-20T20:39:31.289Z,100.00
2022-08-20T20:42:11.457Z,100.00
2022-08-20T20:44:44.565Z,100.00
2022-08-20T20:47:32.007Z,100.00
2022-08-20T20:50:06.295Z,100.00
2022-08-20T20:52:51.468Z,100.00
2022-08-20T20:55:22.911Z,100.00
2022-08-20T20:57:52.534Z,100.00
2022-08-20T21:00:26.820Z,100.00
2022-08-20T21:02:53.876Z,100.00
2022-08-20T21:05:26.552Z,100.00
2022-08-20T21:08:04.020Z,100.00
2022-08-20T21:10:37.748Z,100.00
2022-08-20T21:13:08.287Z,100.00
2022-08-20T21:15:39.629Z,100.00
2022-08-20T21:18:09.479Z,100.00
2022-08-20T21:20:37.613Z,100.00
2022-08-20T21:23:05.607Z,100.00
2022-08-20T21:25:35.179Z,100.00
2022-08-20T21:28:03.493Z,100.00
2022-08-20T21:30:31.443Z,100.00
2022-08-20T21:32:58.817Z,100.00
2022-08-20T21:35:26.625Z,100.00
2022-08-20T21:37:54.371Z,100.00
2022-08-20T21:40:21.907Z,100.00
2022-08-20T21:42:50.199Z,100.00
2022-08-20T21:45:19.782Z,100.00
2022-08-20T21:47:48.938Z,100.00
2022-08-20T21:50:19.646Z,100.00
2022-08-20T21:52:55.355Z,100.00
2022-08-20T21:55:33.062Z,100.00
2022-08-20T21:58:04.915Z,100.00
2022-08-20T22:00:58.962Z,100.00
2022-08-20T22:03:38.535Z,100.00
2022-08-20T22:06:13.196Z,100.00
2022-08-20T22:08:41.328Z,100.00
2022-08-20T22:11:12.076Z,100.00
2022-08-20T22:13:41.291Z,100.00
2022-08-20T22:16:15.173Z,100.00
2022-08-20T22:18:43.290Z,100.00
2022-08-20T22:21:23.594Z,100.00
2022-08-20T22:23:52.261Z,100.00
2022-08-20T22:26:20.903Z,100.00
2022-08-20T22:28:48.873Z,100.00
2022-08-20T22:31:28.873Z,100.00
2022-08-20T22:33:58.184Z,100.00
2022-08-20T22:36:28.187Z,100.00
2022-08-20T22:38:56.168Z,100.00
2022-08-20T22:41:23.693Z,100.00
2022-08-20T22:43:55.793Z,100.00
2022-08-20T22:46:33.333Z,100.00
2022-08-20T22:49:01.196Z,100.00
2022-08-20T22:51:35.365Z,100.00
2022-08-20T22:54:11.443Z,100.00
2022-08-20T22:56:39.297Z,100.00
2022-08-20T22:59:08.493Z,100.00
2022-08-20T23:01:37.262Z,100.00
2022-08-20T23:04:22.568Z,100.00
2022-08-20T23:06:50.198Z,100.00
2022-08-20T23:09:20.976Z,100.00
2022-08-20T23:11:49.598Z,100.00
2022-08-20T23:14:17.195Z,100.00
2022-08-20T23:16:59.193Z,100.00
2022-08-20T23:19:26.845Z,100.00
2022-08-20T23:21:54.051Z,100.00
2022-08-20T23:24:22.077Z,100.00
2022-08-20T23:26:53.124Z,100.00
2022-08-20T23:29:25.918Z,100.00
2022-08-20T23:31:56.817Z,100.00
2022-08-20T23:34:27.051Z,100.00
2022-08-20T23:36:58.329Z,100.00
2022-08-20T23:39:27.906Z,100.00
2022-08-20T23:41:55.976Z,100.00
2022-08-20T23:44:25.896Z,100.00
2022-08-20T23:47:01.992Z,100.00
2022-08-20T23:49:32.078Z,100.00
2022-08-20T23:52:00.806Z,100.00
2022-08-20T23:54:32.721Z,100.00
2022-08-20T23:57:00.078Z,100.00
2022-08-20T23:59:27.330Z,100.00
